sensor_id;sensor_type;location;lat;lon;timestamp;P1;durP1;ratioP1;P2;durP2;ratioP2
28519;SDS011;15732;48.534;20.382;2023-03-30T00:01:51;9.38;;;3.40;;
28519;SDS011;15732;48.534;20.382;2023-03-30T00:04:19;8.52;;;3.50;;
28519;SDS011;15732;48.534;20.382;2023-03-30T00:06:52;11.90;;;4.13;;
28519;SDS011;15732;48.534;20.382;2023-03-30T00:09:19;7.93;;;2.97;;
28519;SDS011;15732;48.534;20.382;2023-03-30T00:11:47;7.35;;;3.42;;
28519;SDS011;15732;48.534;20.382;2023-03-30T00:14:15;8.25;;;2.80;;
28519;SDS011;15732;48.534;20.382;2023-03-30T00:16:44;8.98;;;2.85;;
28519;SDS011;15732;48.534;20.382;2023-03-30T00:19:11;21.98;;;3.33;;
28519;SDS011;15732;48.534;20.382;2023-03-30T00:21:39;12.57;;;3.53;;
28519;SDS011;15732;48.534;20.382;2023-03-30T00:24:06;6.18;;;3.53;;
28519;SDS011;15732;48.534;20.382;2023-03-30T00:26:34;14.45;;;2.78;;
28519;SDS011;15732;48.534;20.382;2023-03-30T00:29:01;7.38;;;3.35;;
28519;SDS011;15732;48.534;20.382;2023-03-30T00:31:33;8.18;;;3.92;;
28519;SDS011;15732;48.534;20.382;2023-03-30T00:34:00;6.90;;;4.15;;
28519;SDS011;15732;48.534;20.382;2023-03-30T00:36:27;4.85;;;2.45;;
28519;SDS011;15732;48.534;20.382;2023-03-30T00:38:55;6.18;;;2.85;;
28519;SDS011;15732;48.534;20.382;2023-03-30T00:41:22;11.52;;;3.67;;
28519;SDS011;15732;48.534;20.382;2023-03-30T00:45:03;10.30;;;4.47;;
28519;SDS011;15732;48.534;20.382;2023-03-30T00:46:58;11.40;;;3.08;;
28519;SDS011;15732;48.534;20.382;2023-03-30T00:49:25;9.13;;;4.53;;
28519;SDS011;15732;48.534;20.382;2023-03-30T00:51:57;6.72;;;2.67;;
28519;SDS011;15732;48.534;20.382;2023-03-30T00:54:25;5.78;;;2.17;;
28519;SDS011;15732;48.534;20.382;2023-03-30T00:56:52;6.82;;;2.95;;
28519;SDS011;15732;48.534;20.382;2023-03-30T00:59:19;6.55;;;3.40;;
28519;SDS011;15732;48.534;20.382;2023-03-30T01:01:47;5.70;;;2.42;;
28519;SDS011;15732;48.534;20.382;2023-03-30T01:04:15;5.07;;;1.90;;
28519;SDS011;15732;48.534;20.382;2023-03-30T01:06:43;6.95;;;2.20;;
28519;SDS011;15732;48.534;20.382;2023-03-30T01:09:12;6.18;;;2.00;;
28519;SDS011;15732;48.534;20.382;2023-03-30T01:11:41;6.03;;;2.60;;
28519;SDS011;15732;48.534;20.382;2023-03-30T01:14:09;6.43;;;3.15;;
28519;SDS011;15732;48.534;20.382;2023-03-30T01:19:31;8.80;;;2.83;;
28519;SDS011;15732;48.534;20.382;2023-03-30T01:22:30;7.55;;;3.58;;
28519;SDS011;15732;48.534;20.382;2023-03-30T01:28:26;9.88;;;3.88;;
28519;SDS011;15732;48.534;20.382;2023-03-30T01:47:08;4.18;;;1.88;;
28519;SDS011;15732;48.534;20.382;2023-03-30T01:49:44;5.82;;;2.33;;
28519;SDS011;15732;48.534;20.382;2023-03-30T01:52:23;3.47;;;1.75;;
28519;SDS011;15732;48.534;20.382;2023-03-30T01:55:05;4.10;;;2.25;;
28519;SDS011;15732;48.534;20.382;2023-03-30T01:57:34;3.58;;;1.67;;
28519;SDS011;15732;48.534;20.382;2023-03-30T02:00:12;3.77;;;1.10;;
28519;SDS011;15732;48.534;20.382;2023-03-30T02:02:43;7.28;;;2.40;;
28519;SDS011;15732;48.534;20.382;2023-03-30T02:05:20;2.37;;;1.47;;
28519;SDS011;15732;48.534;20.382;2023-03-30T02:07:51;6.50;;;1.92;;
28519;SDS011;15732;48.534;20.382;2023-03-30T02:10:22;4.50;;;2.08;;
28519;SDS011;15732;48.534;20.382;2023-03-30T02:12:52;6.72;;;2.20;;
28519;SDS011;15732;48.534;20.382;2023-03-30T02:15:22;7.05;;;2.47;;
28519;SDS011;15732;48.534;20.382;2023-03-30T02:17:51;4.05;;;1.80;;
28519;SDS011;15732;48.534;20.382;2023-03-30T02:20:18;6.22;;;2.90;;
28519;SDS011;15732;48.534;20.382;2023-03-30T02:22:46;8.48;;;2.55;;
28519;SDS011;15732;48.534;20.382;2023-03-30T02:25:15;6.00;;;2.83;;
28519;SDS011;15732;48.534;20.382;2023-03-30T02:27:44;6.97;;;2.70;;
28519;SDS011;15732;48.534;20.382;2023-03-30T02:30:11;8.73;;;2.78;;
28519;SDS011;15732;48.534;20.382;2023-03-30T02:32:47;7.53;;;2.65;;
28519;SDS011;15732;48.534;20.382;2023-03-30T02:41:07;8.73;;;4.10;;
28519;SDS011;15732;48.534;20.382;2023-03-30T02:43:43;11.95;;;4.10;;
28519;SDS011;15732;48.534;20.382;2023-03-30T02:46:27;6.05;;;3.08;;
28519;SDS011;15732;48.534;20.382;2023-03-30T02:51:51;8.45;;;2.72;;
28519;SDS011;15732;48.534;20.382;2023-03-30T02:54:47;7.47;;;2.80;;
28519;SDS011;15732;48.534;20.382;2023-03-30T03:00:07;7.95;;;3.35;;
28519;SDS011;15732;48.534;20.382;2023-03-30T03:02:40;5.30;;;2.50;;
28519;SDS011;15732;48.534;20.382;2023-03-30T03:05:13;5.55;;;2.60;;
28519;SDS011;15732;48.534;20.382;2023-03-30T03:07:41;4.57;;;2.47;;
28519;SDS011;15732;48.534;20.382;2023-03-30T03:10:10;6.65;;;2.58;;
28519;SDS011;15732;48.534;20.382;2023-03-30T03:12:42;5.45;;;2.22;;
28519;SDS011;15732;48.534;20.382;2023-03-30T03:15:10;6.43;;;2.65;;
28519;SDS011;15732;48.534;20.382;2023-03-30T03:17:38;7.05;;;2.75;;
28519;SDS011;15732;48.534;20.382;2023-03-30T03:20:06;7.97;;;2.53;;
28519;SDS011;15732;48.534;20.382;2023-03-30T03:22:35;4.85;;;2.13;;
28519;SDS011;15732;48.534;20.382;2023-03-30T03:25:02;8.93;;;2.15;;
28519;SDS011;15732;48.534;20.382;2023-03-30T03:27:30;12.70;;;2.53;;
28519;SDS011;15732;48.534;20.382;2023-03-30T03:29:57;5.70;;;2.38;;
28519;SDS011;15732;48.534;20.382;2023-03-30T03:32:25;5.97;;;2.58;;
28519;SDS011;15732;48.534;20.382;2023-03-30T03:34:52;8.27;;;2.20;;
28519;SDS011;15732;48.534;20.382;2023-03-30T03:37:20;8.35;;;2.95;;
28519;SDS011;15732;48.534;20.382;2023-03-30T03:39:47;8.30;;;2.55;;
28519;SDS011;15732;48.534;20.382;2023-03-30T03:42:14;5.32;;;2.53;;
28519;SDS011;15732;48.534;20.382;2023-03-30T03:44:42;5.15;;;2.30;;
28519;SDS011;15732;48.534;20.382;2023-03-30T03:47:09;7.47;;;1.75;;
28519;SDS011;15732;48.534;20.382;2023-03-30T03:52:05;15.52;;;2.55;;
28519;SDS011;15732;48.534;20.382;2023-03-30T03:54:32;5.07;;;2.10;;
28519;SDS011;15732;48.534;20.382;2023-03-30T03:57:00;4.28;;;1.48;;
28519;SDS011;15732;48.534;20.382;2023-03-30T03:59:27;4.90;;;1.80;;
28519;SDS011;15732;48.534;20.382;2023-03-30T04:01:54;4.35;;;1.75;;
28519;SDS011;15732;48.534;20.382;2023-03-30T04:04:21;6.18;;;2.33;;
28519;SDS011;15732;48.534;20.382;2023-03-30T04:06:49;3.63;;;1.42;;
28519;SDS011;15732;48.534;20.382;2023-03-30T04:09:17;5.82;;;2.60;;
28519;SDS011;15732;48.534;20.382;2023-03-30T04:14:13;7.78;;;2.38;;
28519;SDS011;15732;48.534;20.382;2023-03-30T04:16:40;3.50;;;1.85;;
28519;SDS011;15732;48.534;20.382;2023-03-30T04:19:08;7.40;;;2.45;;
28519;SDS011;15732;48.534;20.382;2023-03-30T04:21:37;7.28;;;2.38;;
28519;SDS011;15732;48.534;20.382;2023-03-30T04:24:08;8.60;;;2.95;;
28519;SDS011;15732;48.534;20.382;2023-03-30T04:26:37;6.15;;;3.03;;
28519;SDS011;15732;48.534;20.382;2023-03-30T04:29:06;9.18;;;2.67;;
28519;SDS011;15732;48.534;20.382;2023-03-30T04:31:34;7.47;;;2.45;;
28519;SDS011;15732;48.534;20.382;2023-03-30T04:34:03;4.53;;;2.22;;
28519;SDS011;15732;48.534;20.382;2023-03-30T04:36:30;4.28;;;2.45;;
28519;SDS011;15732;48.534;20.382;2023-03-30T04:39:01;19.85;;;2.17;;
28519;SDS011;15732;48.534;20.382;2023-03-30T04:41:34;4.25;;;2.00;;
28519;SDS011;15732;48.534;20.382;2023-03-30T04:44:08;6.43;;;2.45;;
28519;SDS011;15732;48.534;20.382;2023-03-30T04:46:36;5.43;;;2.67;;
28519;SDS011;15732;48.534;20.382;2023-03-30T04:49:07;5.20;;;2.20;;
28519;SDS011;15732;48.534;20.382;2023-03-30T04:51:34;7.70;;;2.60;;
28519;SDS011;15732;48.534;20.382;2023-03-30T04:54:02;14.73;;;2.78;;
28519;SDS011;15732;48.534;20.382;2023-03-30T04:56:29;2.20;;;1.45;;
28519;SDS011;15732;48.534;20.382;2023-03-30T04:58:56;8.23;;;2.38;;
28519;SDS011;15732;48.534;20.382;2023-03-30T05:01:24;9.25;;;3.35;;
28519;SDS011;15732;48.534;20.382;2023-03-30T05:03:51;4.72;;;2.30;;
28519;SDS011;15732;48.534;20.382;2023-03-30T05:06:18;7.43;;;2.50;;
28519;SDS011;15732;48.534;20.382;2023-03-30T05:08:46;7.53;;;2.53;;
28519;SDS011;15732;48.534;20.382;2023-03-30T05:11:13;8.25;;;2.53;;
28519;SDS011;15732;48.534;20.382;2023-03-30T05:13:41;7.85;;;2.70;;
28519;SDS011;15732;48.534;20.382;2023-03-30T05:16:08;4.13;;;2.00;;
28519;SDS011;15732;48.534;20.382;2023-03-30T05:18:36;9.15;;;3.42;;
28519;SDS011;15732;48.534;20.382;2023-03-30T05:21:04;3.87;;;2.30;;
28519;SDS011;15732;48.534;20.382;2023-03-30T05:23:32;7.60;;;2.53;;
28519;SDS011;15732;48.534;20.382;2023-03-30T05:25:59;4.40;;;2.20;;
28519;SDS011;15732;48.534;20.382;2023-03-30T05:28:29;6.78;;;2.78;;
28519;SDS011;15732;48.534;20.382;2023-03-30T05:30:59;11.23;;;3.15;;
28519;SDS011;15732;48.534;20.382;2023-03-30T05:33:27;4.22;;;1.92;;
28519;SDS011;15732;48.534;20.382;2023-03-30T05:35:54;5.53;;;2.35;;
28519;SDS011;15732;48.534;20.382;2023-03-30T05:38:22;10.15;;;2.95;;
28519;SDS011;15732;48.534;20.382;2023-03-30T05:40:52;4.47;;;1.85;;
28519;SDS011;15732;48.534;20.382;2023-03-30T05:43:23;5.03;;;2.40;;
28519;SDS011;15732;48.534;20.382;2023-03-30T05:45:51;11.75;;;5.35;;
28519;SDS011;15732;48.534;20.382;2023-03-30T05:48:18;7.35;;;2.70;;
28519;SDS011;15732;48.534;20.382;2023-03-30T05:50:46;7.85;;;2.72;;
28519;SDS011;15732;48.534;20.382;2023-03-30T05:53:14;5.15;;;2.03;;
28519;SDS011;15732;48.534;20.382;2023-03-30T05:55:42;3.43;;;1.47;;
28519;SDS011;15732;48.534;20.382;2023-03-30T05:58:29;5.82;;;1.80;;
28519;SDS011;15732;48.534;20.382;2023-03-30T06:01:00;3.08;;;1.50;;
28519;SDS011;15732;48.534;20.382;2023-03-30T06:03:28;3.90;;;1.40;;
28519;SDS011;15732;48.534;20.382;2023-03-30T06:05:55;4.32;;;1.83;;
28519;SDS011;15732;48.534;20.382;2023-03-30T06:08:22;6.57;;;2.55;;
28519;SDS011;15732;48.534;20.382;2023-03-30T06:10:52;9.50;;;2.45;;
28519;SDS011;15732;48.534;20.382;2023-03-30T06:13:20;3.65;;;2.38;;
28519;SDS011;15732;48.534;20.382;2023-03-30T06:15:47;3.38;;;1.83;;
28519;SDS011;15732;48.534;20.382;2023-03-30T06:18:15;2.70;;;1.85;;
28519;SDS011;15732;48.534;20.382;2023-03-30T06:20:45;7.90;;;2.15;;
28519;SDS011;15732;48.534;20.382;2023-03-30T06:23:12;7.45;;;2.85;;
28519;SDS011;15732;48.534;20.382;2023-03-30T06:25:43;4.82;;;2.05;;
28519;SDS011;15732;48.534;20.382;2023-03-30T06:28:32;10.55;;;2.15;;
28519;SDS011;15732;48.534;20.382;2023-03-30T06:30:59;4.97;;;2.70;;
28519;SDS011;15732;48.534;20.382;2023-03-30T06:33:27;6.20;;;1.77;;
28519;SDS011;15732;48.534;20.382;2023-03-30T06:35:56;5.53;;;2.03;;
28519;SDS011;15732;48.534;20.382;2023-03-30T06:38:23;11.13;;;1.90;;
28519;SDS011;15732;48.534;20.382;2023-03-30T06:40:50;4.32;;;2.00;;
28519;SDS011;15732;48.534;20.382;2023-03-30T06:43:18;4.65;;;2.03;;
28519;SDS011;15732;48.534;20.382;2023-03-30T06:45:54;6.30;;;2.30;;
28519;SDS011;15732;48.534;20.382;2023-03-30T06:48:22;7.00;;;2.08;;
28519;SDS011;15732;48.534;20.382;2023-03-30T06:50:50;4.85;;;2.58;;
28519;SDS011;15732;48.534;20.382;2023-03-30T06:53:17;5.80;;;2.58;;
28519;SDS011;15732;48.534;20.382;2023-03-30T06:55:49;10.73;;;2.50;;
28519;SDS011;15732;48.534;20.382;2023-03-30T06:58:17;6.63;;;3.08;;
28519;SDS011;15732;48.534;20.382;2023-03-30T07:00:44;3.65;;;1.83;;
28519;SDS011;15732;48.534;20.382;2023-03-30T07:03:15;4.28;;;2.13;;
28519;SDS011;15732;48.534;20.382;2023-03-30T07:05:47;5.30;;;2.20;;
28519;SDS011;15732;48.534;20.382;2023-03-30T07:08:15;4.38;;;1.98;;
28519;SDS011;15732;48.534;20.382;2023-03-30T07:10:43;2.65;;;1.40;;
28519;SDS011;15732;48.534;20.382;2023-03-30T07:13:12;4.53;;;2.00;;
28519;SDS011;15732;48.534;20.382;2023-03-30T07:15:41;2.83;;;1.48;;
28519;SDS011;15732;48.534;20.382;2023-03-30T07:18:09;6.45;;;1.65;;
28519;SDS011;15732;48.534;20.382;2023-03-30T07:20:36;3.53;;;1.70;;
28519;SDS011;15732;48.534;20.382;2023-03-30T07:23:03;3.97;;;1.48;;
28519;SDS011;15732;48.534;20.382;2023-03-30T07:25:31;2.78;;;1.67;;
28519;SDS011;15732;48.534;20.382;2023-03-30T07:27:58;8.35;;;3.03;;
28519;SDS011;15732;48.534;20.382;2023-03-30T07:30:27;6.65;;;2.60;;
28519;SDS011;15732;48.534;20.382;2023-03-30T07:32:54;7.57;;;2.92;;
28519;SDS011;15732;48.534;20.382;2023-03-30T07:35:21;4.32;;;2.25;;
28519;SDS011;15732;48.534;20.382;2023-03-30T07:37:49;6.45;;;2.38;;
28519;SDS011;15732;48.534;20.382;2023-03-30T07:40:15;5.18;;;2.45;;
28519;SDS011;15732;48.534;20.382;2023-03-30T07:42:43;5.47;;;1.90;;
28519;SDS011;15732;48.534;20.382;2023-03-30T07:45:10;8.68;;;2.63;;
28519;SDS011;15732;48.534;20.382;2023-03-30T07:47:38;7.13;;;2.13;;
28519;SDS011;15732;48.534;20.382;2023-03-30T07:50:06;7.88;;;2.60;;
28519;SDS011;15732;48.534;20.382;2023-03-30T07:52:33;4.57;;;2.20;;
28519;SDS011;15732;48.534;20.382;2023-03-30T07:55:01;16.30;;;2.72;;
28519;SDS011;15732;48.534;20.382;2023-03-30T07:57:29;5.28;;;2.35;;
28519;SDS011;15732;48.534;20.382;2023-03-30T07:59:57;3.13;;;1.70;;
28519;SDS011;15732;48.534;20.382;2023-03-30T08:02:24;6.13;;;2.22;;
28519;SDS011;15732;48.534;20.382;2023-03-30T08:04:52;7.78;;;3.30;;
28519;SDS011;15732;48.534;20.382;2023-03-30T08:07:19;3.97;;;1.63;;
28519;SDS011;15732;48.534;20.382;2023-03-30T08:09:46;3.63;;;1.63;;
28519;SDS011;15732;48.534;20.382;2023-03-30T08:12:14;6.72;;;2.45;;
28519;SDS011;15732;48.534;20.382;2023-03-30T08:14:42;5.70;;;1.67;;
28519;SDS011;15732;48.534;20.382;2023-03-30T08:17:09;6.72;;;2.67;;
28519;SDS011;15732;48.534;20.382;2023-03-30T08:19:37;5.57;;;2.15;;
28519;SDS011;15732;48.534;20.382;2023-03-30T08:22:04;6.30;;;3.13;;
28519;SDS011;15732;48.534;20.382;2023-03-30T08:24:31;6.47;;;2.50;;
28519;SDS011;15732;48.534;20.382;2023-03-30T08:27:02;9.90;;;3.25;;
28519;SDS011;15732;48.534;20.382;2023-03-30T08:29:33;5.03;;;2.35;;
28519;SDS011;15732;48.534;20.382;2023-03-30T08:32:01;5.40;;;2.55;;
28519;SDS011;15732;48.534;20.382;2023-03-30T08:34:28;2.38;;;1.23;;
28519;SDS011;15732;48.534;20.382;2023-03-30T08:36:56;5.13;;;2.17;;
28519;SDS011;15732;48.534;20.382;2023-03-30T08:39:23;4.55;;;2.00;;
28519;SDS011;15732;48.534;20.382;2023-03-30T08:44:40;1.70;;;1.00;;
28519;SDS011;15732;48.534;20.382;2023-03-30T08:47:15;3.03;;;1.05;;
28519;SDS011;15732;48.534;20.382;2023-03-30T08:50:06;2.28;;;0.95;;
28519;SDS011;15732;48.534;20.382;2023-03-30T08:52:46;3.75;;;1.10;;
28519;SDS011;15732;48.534;20.382;2023-03-30T08:55:30;2.80;;;1.38;;
28519;SDS011;15732;48.534;20.382;2023-03-30T08:58:54;3.38;;;1.60;;
28519;SDS011;15732;48.534;20.382;2023-03-30T09:06:58;3.53;;;1.63;;
28519;SDS011;15732;48.534;20.382;2023-03-30T09:09:50;3.70;;;1.38;;
28519;SDS011;15732;48.534;20.382;2023-03-30T09:12:21;2.95;;;1.50;;
28519;SDS011;15732;48.534;20.382;2023-03-30T09:15:15;3.20;;;1.38;;
28519;SDS011;15732;48.534;20.382;2023-03-30T09:20:41;3.05;;;1.50;;
28519;SDS011;15732;48.534;20.382;2023-03-30T09:23:15;3.17;;;1.08;;
28519;SDS011;15732;48.534;20.382;2023-03-30T09:28:21;4.28;;;1.42;;
28519;SDS011;15732;48.534;20.382;2023-03-30T09:31:18;14.98;;;2.10;;
28519;SDS011;15732;48.534;20.382;2023-03-30T09:39:35;6.40;;;2.33;;
28519;SDS011;15732;48.534;20.382;2023-03-30T09:47:12;7.63;;;2.30;;
28519;SDS011;15732;48.534;20.382;2023-03-30T09:49:56;5.22;;;2.72;;
28519;SDS011;15732;48.534;20.382;2023-03-30T09:52:26;5.10;;;2.53;;
28519;SDS011;15732;48.534;20.382;2023-03-30T09:55:01;5.47;;;2.47;;
28519;SDS011;15732;48.534;20.382;2023-03-30T09:57:49;5.57;;;2.50;;
28519;SDS011;15732;48.534;20.382;2023-03-30T10:00:25;5.97;;;2.75;;
28519;SDS011;15732;48.534;20.382;2023-03-30T10:02:55;5.22;;;2.75;;
28519;SDS011;15732;48.534;20.382;2023-03-30T10:05:27;6.63;;;2.38;;
28519;SDS011;15732;48.534;20.382;2023-03-30T10:08:01;6.15;;;1.98;;
28519;SDS011;15732;48.534;20.382;2023-03-30T10:10:52;5.30;;;2.20;;
28519;SDS011;15732;48.534;20.382;2023-03-30T10:13:24;6.38;;;2.65;;
28519;SDS011;15732;48.534;20.382;2023-03-30T10:15:59;5.20;;;2.22;;
28519;SDS011;15732;48.534;20.382;2023-03-30T10:18:59;4.70;;;2.30;;
28519;SDS011;15732;48.534;20.382;2023-03-30T10:21:54;6.07;;;2.22;;
28519;SDS011;15732;48.534;20.382;2023-03-30T10:24:27;7.95;;;2.58;;
28519;SDS011;15732;48.534;20.382;2023-03-30T10:27:17;7.30;;;2.20;;
28519;SDS011;15732;48.534;20.382;2023-03-30T10:29:44;7.43;;;2.22;;
28519;SDS011;15732;48.534;20.382;2023-03-30T10:32:14;4.18;;;1.85;;
28519;SDS011;15732;48.534;20.382;2023-03-30T10:34:45;3.97;;;2.20;;
28519;SDS011;15732;48.534;20.382;2023-03-30T10:37:38;7.13;;;1.95;;
28519;SDS011;15732;48.534;20.382;2023-03-30T10:40:16;6.72;;;2.78;;
28519;SDS011;15732;48.534;20.382;2023-03-30T10:42:43;5.13;;;2.90;;
28519;SDS011;15732;48.534;20.382;2023-03-30T10:45:17;5.20;;;2.38;;
28519;SDS011;15732;48.534;20.382;2023-03-30T10:55:41;9.25;;;2.88;;
28519;SDS011;15732;48.534;20.382;2023-03-30T11:04:01;10.82;;;2.30;;
28519;SDS011;15732;48.534;20.382;2023-03-30T11:06:39;10.18;;;2.95;;
28519;SDS011;15732;48.534;20.382;2023-03-30T11:09:09;3.53;;;1.58;;
28519;SDS011;15732;48.534;20.382;2023-03-30T11:11:44;4.43;;;2.20;;
28519;SDS011;15732;48.534;20.382;2023-03-30T11:14:20;6.85;;;2.97;;
28519;SDS011;15732;48.534;20.382;2023-03-30T11:17:15;4.00;;;2.00;;
28519;SDS011;15732;48.534;20.382;2023-03-30T11:19:51;5.07;;;2.47;;
28519;SDS011;15732;48.534;20.382;2023-03-30T11:23:17;6.10;;;1.45;;
28519;SDS011;15732;48.534;20.382;2023-03-30T11:28:21;5.15;;;1.90;;
28519;SDS011;15732;48.534;20.382;2023-03-30T11:31:03;8.05;;;2.08;;
28519;SDS011;15732;48.534;20.382;2023-03-30T11:37:10;3.05;;;1.73;;
28519;SDS011;15732;48.534;20.382;2023-03-30T11:39:38;7.55;;;2.80;;
28519;SDS011;15732;48.534;20.382;2023-03-30T11:42:23;3.35;;;1.48;;
28519;SDS011;15732;48.534;20.382;2023-03-30T11:44:55;5.18;;;2.20;;
28519;SDS011;15732;48.534;20.382;2023-03-30T11:53:05;8.18;;;2.42;;
28519;SDS011;15732;48.534;20.382;2023-03-30T11:58:35;20.55;;;2.33;;
28519;SDS011;15732;48.534;20.382;2023-03-30T12:03:46;4.22;;;2.03;;
28519;SDS011;15732;48.534;20.382;2023-03-30T12:06:29;4.80;;;1.92;;
28519;SDS011;15732;48.534;20.382;2023-03-30T12:12:08;5.30;;;2.53;;
28519;SDS011;15732;48.534;20.382;2023-03-30T12:26:17;6.35;;;1.67;;
28519;SDS011;15732;48.534;20.382;2023-03-30T12:28:57;4.55;;;2.15;;
28519;SDS011;15732;48.534;20.382;2023-03-30T12:34:12;5.93;;;2.75;;
28519;SDS011;15732;48.534;20.382;2023-03-30T12:36:53;9.75;;;3.03;;
28519;SDS011;15732;48.534;20.382;2023-03-30T12:39:39;6.70;;;3.03;;
28519;SDS011;15732;48.534;20.382;2023-03-30T12:42:34;10.93;;;3.30;;
28519;SDS011;15732;48.534;20.382;2023-03-30T12:56:35;4.18;;;2.00;;
28519;SDS011;15732;48.534;20.382;2023-03-30T13:04:40;5.97;;;2.20;;
28519;SDS011;15732;48.534;20.382;2023-03-30T13:07:30;5.40;;;2.17;;
28519;SDS011;15732;48.534;20.382;2023-03-30T13:10:03;8.85;;;1.85;;
28519;SDS011;15732;48.534;20.382;2023-03-30T13:12:51;4.63;;;2.15;;
28519;SDS011;15732;48.534;20.382;2023-03-30T13:15:39;5.80;;;2.35;;
28519;SDS011;15732;48.534;20.382;2023-03-30T13:25:39;5.15;;;1.50;;
28519;SDS011;15732;48.534;20.382;2023-03-30T13:28:44;6.47;;;2.30;;
28519;SDS011;15732;48.534;20.382;2023-03-30T13:34:25;8.63;;;2.38;;
28519;SDS011;15732;48.534;20.382;2023-03-30T13:37:16;5.50;;;2.85;;
28519;SDS011;15732;48.534;20.382;2023-03-30T13:45:45;5.95;;;2.20;;
28519;SDS011;15732;48.534;20.382;2023-03-30T13:50:55;4.78;;;2.58;;
28519;SDS011;15732;48.534;20.382;2023-03-30T13:53:30;9.50;;;2.70;;
28519;SDS011;15732;48.534;20.382;2023-03-30T13:56:09;4.25;;;1.85;;
28519;SDS011;15732;48.534;20.382;2023-03-30T13:58:41;4.55;;;2.08;;
28519;SDS011;15732;48.534;20.382;2023-03-30T14:01:14;4.95;;;1.98;;
28519;SDS011;15732;48.534;20.382;2023-03-30T14:03:57;3.78;;;1.60;;
28519;SDS011;15732;48.534;20.382;2023-03-30T14:06:42;9.13;;;2.70;;
28519;SDS011;15732;48.534;20.382;2023-03-30T14:09:13;5.82;;;2.38;;
28519;SDS011;15732;48.534;20.382;2023-03-30T14:11:44;9.07;;;3.65;;
28519;SDS011;15732;48.534;20.382;2023-03-30T14:17:04;5.25;;;2.13;;
28519;SDS011;15732;48.534;20.382;2023-03-30T14:22:37;9.00;;;3.25;;
28519;SDS011;15732;48.534;20.382;2023-03-30T14:25:20;9.02;;;3.30;;
28519;SDS011;15732;48.534;20.382;2023-03-30T14:28:01;7.22;;;2.58;;
28519;SDS011;15732;48.534;20.382;2023-03-30T14:30:32;7.13;;;2.97;;
28519;SDS011;15732;48.534;20.382;2023-03-30T14:33:04;3.95;;;1.60;;
28519;SDS011;15732;48.534;20.382;2023-03-30T14:35:35;8.18;;;2.20;;
28519;SDS011;15732;48.534;20.382;2023-03-30T14:38:15;3.80;;;1.88;;
28519;SDS011;15732;48.534;20.382;2023-03-30T14:41:08;6.20;;;2.72;;
28519;SDS011;15732;48.534;20.382;2023-03-30T14:43:42;5.55;;;2.85;;
28519;SDS011;15732;48.534;20.382;2023-03-30T14:49:27;6.57;;;2.10;;
28519;SDS011;15732;48.534;20.382;2023-03-30T14:52:01;5.45;;;2.42;;
28519;SDS011;15732;48.534;20.382;2023-03-30T14:54:34;12.43;;;2.47;;
28519;SDS011;15732;48.534;20.382;2023-03-30T14:57:04;7.78;;;2.50;;
28519;SDS011;15732;48.534;20.382;2023-03-30T14:59:33;3.50;;;2.03;;
28519;SDS011;15732;48.534;20.382;2023-03-30T15:02:15;5.50;;;1.88;;
28519;SDS011;15732;48.534;20.382;2023-03-30T15:04:57;5.30;;;2.63;;
28519;SDS011;15732;48.534;20.382;2023-03-30T15:07:29;5.00;;;1.70;;
28519;SDS011;15732;48.534;20.382;2023-03-30T15:09:58;4.18;;;2.08;;
28519;SDS011;15732;48.534;20.382;2023-03-30T15:12:27;4.15;;;1.60;;
28519;SDS011;15732;48.534;20.382;2023-03-30T15:15:05;7.32;;;2.17;;
28519;SDS011;15732;48.534;20.382;2023-03-30T15:17:34;3.53;;;1.77;;
28519;SDS011;15732;48.534;20.382;2023-03-30T15:20:03;4.63;;;2.20;;
28519;SDS011;15732;48.534;20.382;2023-03-30T15:22:32;10.50;;;2.10;;
28519;SDS011;15732;48.534;20.382;2023-03-30T15:25:12;6.68;;;3.53;;
28519;SDS011;15732;48.534;20.382;2023-03-30T15:27:43;8.50;;;2.10;;
28519;SDS011;15732;48.534;20.382;2023-03-30T15:30:25;5.72;;;2.38;;
28519;SDS011;15732;48.534;20.382;2023-03-30T15:32:59;7.38;;;2.70;;
28519;SDS011;15732;48.534;20.382;2023-03-30T15:35:31;4.32;;;2.25;;
28519;SDS011;15732;48.534;20.382;2023-03-30T15:40:39;2.60;;;1.33;;
28519;SDS011;15732;48.534;20.382;2023-03-30T15:48:43;6.15;;;2.38;;
28519;SDS011;15732;48.534;20.382;2023-03-30T15:54:17;8.75;;;1.55;;
28519;SDS011;15732;48.534;20.382;2023-03-30T15:56:52;2.92;;;1.73;;
28519;SDS011;15732;48.534;20.382;2023-03-30T15:59:39;2.47;;;1.13;;
28519;SDS011;15732;48.534;20.382;2023-03-30T16:02:12;5.88;;;1.90;;
28519;SDS011;15732;48.534;20.382;2023-03-30T16:04:41;5.32;;;2.67;;
28519;SDS011;15732;48.534;20.382;2023-03-30T16:07:13;2.13;;;1.33;;
28519;SDS011;15732;48.534;20.382;2023-03-30T16:09:48;4.45;;;2.03;;
28519;SDS011;15732;48.534;20.382;2023-03-30T16:12:17;8.95;;;2.42;;
28519;SDS011;15732;48.534;20.382;2023-03-30T16:17:25;4.32;;;1.98;;
28519;SDS011;15732;48.534;20.382;2023-03-30T16:19:56;5.07;;;1.73;;
28519;SDS011;15732;48.534;20.382;2023-03-30T16:22:23;9.00;;;2.83;;
28519;SDS011;15732;48.534;20.382;2023-03-30T16:24:51;6.43;;;3.13;;
28519;SDS011;15732;48.534;20.382;2023-03-30T16:27:23;8.73;;;3.03;;
28519;SDS011;15732;48.534;20.382;2023-03-30T16:29:54;6.72;;;2.78;;
28519;SDS011;15732;48.534;20.382;2023-03-30T16:32:25;6.97;;;2.63;;
28519;SDS011;15732;48.534;20.382;2023-03-30T16:34:56;7.45;;;3.47;;
28519;SDS011;15732;48.534;20.382;2023-03-30T16:37:24;8.82;;;3.22;;
28519;SDS011;15732;48.534;20.382;2023-03-30T16:39:52;3.80;;;2.28;;
28519;SDS011;15732;48.534;20.382;2023-03-30T16:42:19;9.25;;;2.03;;
28519;SDS011;15732;48.534;20.382;2023-03-30T16:44:47;6.15;;;2.35;;
28519;SDS011;15732;48.534;20.382;2023-03-30T16:47:14;6.40;;;2.40;;
28519;SDS011;15732;48.534;20.382;2023-03-30T16:49:45;9.23;;;2.63;;
28519;SDS011;15732;48.534;20.382;2023-03-30T16:52:12;7.75;;;2.90;;
28519;SDS011;15732;48.534;20.382;2023-03-30T16:54:39;3.47;;;1.80;;
28519;SDS011;15732;48.534;20.382;2023-03-30T16:57:10;6.15;;;2.67;;
28519;SDS011;15732;48.534;20.382;2023-03-30T16:59:38;7.25;;;3.38;;
28519;SDS011;15732;48.534;20.382;2023-03-30T17:02:08;4.47;;;2.50;;
28519;SDS011;15732;48.534;20.382;2023-03-30T17:04:36;10.32;;;2.92;;
28519;SDS011;15732;48.534;20.382;2023-03-30T17:07:03;10.90;;;4.40;;
28519;SDS011;15732;48.534;20.382;2023-03-30T17:09:35;22.60;;;7.82;;
28519;SDS011;15732;48.534;20.382;2023-03-30T17:12:02;13.98;;;6.25;;
28519;SDS011;15732;48.534;20.382;2023-03-30T17:14:30;12.80;;;5.22;;
28519;SDS011;15732;48.534;20.382;2023-03-30T17:16:58;17.38;;;5.60;;
28519;SDS011;15732;48.534;20.382;2023-03-30T17:19:25;12.63;;;6.57;;
28519;SDS011;15732;48.534;20.382;2023-03-30T17:21:57;11.20;;;3.55;;
28519;SDS011;15732;48.534;20.382;2023-03-30T17:24:24;17.88;;;7.53;;
28519;SDS011;15732;48.534;20.382;2023-03-30T17:26:58;15.40;;;4.95;;
28519;SDS011;15732;48.534;20.382;2023-03-30T17:29:30;8.25;;;4.30;;
28519;SDS011;15732;48.534;20.382;2023-03-30T17:32:04;8.65;;;4.55;;
28519;SDS011;15732;48.534;20.382;2023-03-30T17:34:36;29.33;;;12.80;;
28519;SDS011;15732;48.534;20.382;2023-03-30T17:37:08;32.97;;;14.88;;
28519;SDS011;15732;48.534;20.382;2023-03-30T17:39:35;26.75;;;13.60;;
28519;SDS011;15732;48.534;20.382;2023-03-30T17:42:03;38.08;;;14.15;;
28519;SDS011;15732;48.534;20.382;2023-03-30T17:44:30;48.30;;;18.65;;
28519;SDS011;15732;48.534;20.382;2023-03-30T17:46:58;41.27;;;20.67;;
28519;SDS011;15732;48.534;20.382;2023-03-30T17:49:26;58.07;;;19.90;;
28519;SDS011;15732;48.534;20.382;2023-03-30T17:51:54;36.40;;;15.38;;
28519;SDS011;15732;48.534;20.382;2023-03-30T17:54:22;27.90;;;12.38;;